createdAt,value
2019-05-17T00:00:39.710Z,16.30
2019-05-17T00:01:47.621Z,16.35
2019-05-17T00:02:57.161Z,16.36
2019-05-17T00:04:07.264Z,16.38
2019-05-17T00:05:17.534Z,16.40
2019-05-17T00:06:27.380Z,16.40
2019-05-17T00:07:36.957Z,16.41
2019-05-17T00:08:47.141Z,16.40
2019-05-17T00:09:57.095Z,16.39
2019-05-17T00:11:06.646Z,16.40
2019-05-17T00:12:17.182Z,16.40
2019-05-17T00:13:26.874Z,16.41
2019-05-17T00:14:36.551Z,16.37
2019-05-17T00:15:47.252Z,16.36
2019-05-17T00:16:57.103Z,16.31
2019-05-17T00:18:06.755Z,16.28
2019-05-17T00:19:16.898Z,16.24
2019-05-17T00:20:26.667Z,16.21
2019-05-17T00:21:36.933Z,16.21
2019-05-17T00:22:47.183Z,16.20
2019-05-17T00:23:57.224Z,16.22
2019-05-17T00:25:08.080Z,16.17
2019-05-17T00:26:16.961Z,16.17
2019-05-17T00:27:26.465Z,16.20
2019-05-17T00:28:37.284Z,16.17
2019-05-17T00:29:46.524Z,16.17
2019-05-17T00:30:57.127Z,16.18
2019-05-17T00:32:06.442Z,16.20
2019-05-17T00:33:16.938Z,16.21
2019-05-17T00:34:27.025Z,16.17
2019-05-17T00:35:37.614Z,16.15
2019-05-17T00:36:46.958Z,16.16
2019-05-17T00:37:57.078Z,16.15
2019-05-17T00:39:07.422Z,16.15
2019-05-17T00:40:17.938Z,16.17
2019-05-17T00:41:26.892Z,16.16
2019-05-17T00:42:37.273Z,16.15
2019-05-17T00:43:46.223Z,16.16
2019-05-17T00:44:56.533Z,16.16
2019-05-17T00:46:06.698Z,16.12
2019-05-17T00:47:16.991Z,16.13
2019-05-17T00:48:26.494Z,16.13
2019-05-17T00:49:36.979Z,16.13
2019-05-17T00:50:44.538Z,16.13
2019-05-17T00:51:53.025Z,16.11
2019-05-17T00:53:01.234Z,16.11
2019-05-17T00:54:09.892Z,16.10
2019-05-17T00:55:17.911Z,16.11
2019-05-17T00:56:26.743Z,16.10
2019-05-17T00:57:36.662Z,16.09
2019-05-17T00:58:47.581Z,16.11
2019-05-17T00:59:56.567Z,16.11
2019-05-17T01:01:08.403Z,16.10
2019-05-17T01:02:16.343Z,16.12
2019-05-17T01:03:26.957Z,16.11
2019-05-17T01:04:36.814Z,16.09
2019-05-17T01:05:47.167Z,16.07
2019-05-17T01:06:56.293Z,16.09
2019-05-17T01:08:07.313Z,16.08
2019-05-17T01:09:17.052Z,16.10
2019-05-17T01:10:27.198Z,16.09
2019-05-17T01:11:36.610Z,16.10
2019-05-17T01:12:44.898Z,16.10
2019-05-17T01:13:55.483Z,16.11
2019-05-17T01:15:03.426Z,16.08
2019-05-17T01:16:11.410Z,16.04
2019-05-17T01:17:20.056Z,16.04
2019-05-17T01:18:27.756Z,15.98
2019-05-17T01:19:36.681Z,15.93
2019-05-17T01:20:47.292Z,15.87
2019-05-17T01:21:56.840Z,15.86
2019-05-17T01:23:07.270Z,15.87
2019-05-17T01:24:17.094Z,15.89
2019-05-17T01:25:24.427Z,15.86
2019-05-17T01:26:33.309Z,15.80
2019-05-17T01:27:41.429Z,15.77
2019-05-17T01:28:50.212Z,15.73
2019-05-17T01:29:58.417Z,15.71
2019-05-17T01:31:07.334Z,15.69
2019-05-17T01:32:17.263Z,15.66
2019-05-17T01:33:26.484Z,15.60
2019-05-17T01:34:34.787Z,15.60
2019-05-17T01:35:43.736Z,15.59
2019-05-17T01:36:51.802Z,15.57
2019-05-17T01:38:00.430Z,15.53
2019-05-17T01:39:17.619Z,15.55
2019-05-17T01:40:19.483Z,15.51
2019-05-17T01:41:27.615Z,15.49
2019-05-17T01:42:37.507Z,15.45
2019-05-17T01:43:47.417Z,15.42
2019-05-17T01:44:56.748Z,15.39
2019-05-17T01:46:06.672Z,15.34
2019-05-17T01:47:16.661Z,15.34
2019-05-17T01:48:26.925Z,15.34
2019-05-17T01:49:36.345Z,15.29
2019-05-17T01:50:46.444Z,15.28
2019-05-17T01:51:56.810Z,15.31
2019-05-17T01:53:07.126Z,15.27
2019-05-17T01:54:17.324Z,15.27
2019-05-17T01:55:26.588Z,15.26
2019-05-17T01:56:37.030Z,15.26
2019-05-17T01:57:47.418Z,15.29
2019-05-17T01:58:57.528Z,15.22
2019-05-17T02:00:11.763Z,15.20
2019-05-17T02:01:20.952Z,15.15
2019-05-17T02:02:30.689Z,15.17
2019-05-17T02:03:39.547Z,15.16
2019-05-17T02:04:47.450Z,15.13
2019-05-17T02:05:56.628Z,15.10
2019-05-17T02:07:06.859Z,15.10
2019-05-17T02:08:17.085Z,15.08
2019-05-17T02:09:34.859Z,15.06
2019-05-17T02:10:37.442Z,15.04
2019-05-17T02:11:46.642Z,15.05
2019-05-17T02:12:57.056Z,15.01
2019-05-17T02:14:06.893Z,15.00
2019-05-17T02:15:16.873Z,14.97
2019-05-17T02:16:26.751Z,15.02
2019-05-17T02:17:37.184Z,15.06
2019-05-17T02:18:46.618Z,15.06
2019-05-17T02:19:57.325Z,15.09
2019-05-17T02:21:06.498Z,15.09
2019-05-17T02:22:16.784Z,15.13
2019-05-17T02:23:27.048Z,15.14
2019-05-17T02:24:37.033Z,15.08
2019-05-17T02:25:47.225Z,15.10
2019-05-17T02:26:57.013Z,15.03
2019-05-17T02:28:05.658Z,15.00
2019-05-17T02:29:14.614Z,14.96
2019-05-17T02:30:23.554Z,14.92
2019-05-17T02:31:33.178Z,14.88
2019-05-17T02:32:44.200Z,14.84
2019-05-17T02:33:53.563Z,14.81
2019-05-17T02:35:03.307Z,14.80
2019-05-17T02:36:14.124Z,14.80
2019-05-17T02:37:23.178Z,14.81
2019-05-17T02:38:33.411Z,14.79
2019-05-17T02:39:57.075Z,14.79
2019-05-17T02:40:53.536Z,14.78
2019-05-17T02:42:02.870Z,14.81
2019-05-17T02:43:13.293Z,14.82
2019-05-17T02:44:23.539Z,14.80
2019-05-17T02:45:33.016Z,14.79
2019-05-17T02:46:43.390Z,14.79
2019-05-17T02:47:53.742Z,14.76
2019-05-17T02:49:03.037Z,14.78
2019-05-17T02:50:13.078Z,14.78
2019-05-17T02:51:23.715Z,14.72
2019-05-17T02:52:32.848Z,14.70
2019-05-17T02:53:42.942Z,14.72
2019-05-17T02:54:52.694Z,14.70
2019-05-17T02:56:03.266Z,14.72
2019-05-17T02:57:14.191Z,14.67
2019-05-17T02:58:23.291Z,14.65
2019-05-17T02:59:33.071Z,14.66
2019-05-17T03:00:44.263Z,14.64
2019-05-17T03:01:52.724Z,14.60
2019-05-17T03:03:03.326Z,14.64
2019-05-17T03:04:13.042Z,14.59
2019-05-17T03:05:23.243Z,14.60
2019-05-17T03:06:32.900Z,14.56
2019-05-17T03:07:43.989Z,14.58
2019-05-17T03:08:52.504Z,14.61
2019-05-17T03:10:13.581Z,14.58
2019-05-17T03:11:13.557Z,14.59
2019-05-17T03:12:23.648Z,14.60
2019-05-17T03:13:32.863Z,14.64
2019-05-17T03:14:43.352Z,14.61
2019-05-17T03:15:52.773Z,14.61
2019-05-17T03:17:03.356Z,14.60
2019-05-17T03:18:13.396Z,14.61
2019-05-17T03:19:23.525Z,14.58
2019-05-17T03:20:32.925Z,14.64
2019-05-17T03:21:42.933Z,14.66
2019-05-17T03:22:52.678Z,14.65
2019-05-17T03:24:03.104Z,14.68
2019-05-17T03:25:13.707Z,14.64
2019-05-17T03:26:23.141Z,14.66
2019-05-17T03:27:33.697Z,14.64
2019-05-17T03:28:42.645Z,14.61
2019-05-17T03:29:53.703Z,14.59
2019-05-17T03:31:07.736Z,14.55
2019-05-17T03:32:17.101Z,14.49
2019-05-17T03:33:26.418Z,14.47
2019-05-17T03:34:36.836Z,14.43
2019-05-17T03:35:45.776Z,14.39
2019-05-17T03:36:56.535Z,14.37
2019-05-17T03:38:04.231Z,14.32
2019-05-17T03:39:13.096Z,14.31
2019-05-17T03:40:46.381Z,14.32
2019-05-17T03:41:34.104Z,14.32
2019-05-17T03:42:42.874Z,14.27
2019-05-17T03:43:53.365Z,14.28
2019-05-17T03:45:03.019Z,14.24
2019-05-17T03:46:13.950Z,14.31
2019-05-17T03:47:22.675Z,14.30
2019-05-17T03:48:33.327Z,14.30
2019-05-17T03:49:43.613Z,14.29
2019-05-17T03:50:53.127Z,14.32
2019-05-17T03:52:02.781Z,14.31
2019-05-17T03:53:13.131Z,14.33
2019-05-17T03:54:22.669Z,14.37
2019-05-17T03:55:33.340Z,14.34
2019-05-17T03:56:42.708Z,14.31
2019-05-17T03:57:53.191Z,14.25
2019-05-17T03:59:03.695Z,14.24
2019-05-17T04:00:13.482Z,14.21
2019-05-17T04:01:23.293Z,14.21
2019-05-17T04:02:32.768Z,14.14
2019-05-17T04:03:43.444Z,14.17
2019-05-17T04:04:52.959Z,14.20
2019-05-17T04:06:03.919Z,14.20
2019-05-17T04:07:12.741Z,14.25
2019-05-17T04:08:22.969Z,14.25
2019-05-17T04:09:32.824Z,14.25
2019-05-17T04:10:42.552Z,14.19
2019-05-17T04:11:53.577Z,14.23
2019-05-17T04:13:04.054Z,14.29
2019-05-17T04:14:14.008Z,14.28
2019-05-17T04:15:24.114Z,14.30
2019-05-17T04:16:33.973Z,14.33
2019-05-17T04:17:44.109Z,14.35
2019-05-17T04:18:53.463Z,14.41
2019-05-17T04:20:03.419Z,14.40
2019-05-17T04:21:12.640Z,14.38
2019-05-17T04:22:23.622Z,14.38
2019-05-17T04:23:33.934Z,14.39
2019-05-17T04:24:43.846Z,14.38
2019-05-17T04:25:53.098Z,14.39
2019-05-17T04:27:03.681Z,14.38
2019-05-17T04:28:13.602Z,14.37
2019-05-17T04:29:22.695Z,14.34
2019-05-17T04:30:32.755Z,14.39
2019-05-17T04:31:43.491Z,14.43
2019-05-17T04:32:52.667Z,14.41
2019-05-17T04:34:02.957Z,14.44
2019-05-17T04:35:12.911Z,14.49
2019-05-17T04:36:22.500Z,14.50
2019-05-17T04:37:33.903Z,14.56
2019-05-17T04:38:43.551Z,14.53
2019-05-17T04:39:52.585Z,14.52
2019-05-17T04:41:03.215Z,14.52
2019-05-17T04:42:13.598Z,14.54
2019-05-17T04:43:23.043Z,14.50
2019-05-17T04:44:32.288Z,14.51
2019-05-17T04:45:42.604Z,14.39
2019-05-17T04:46:53.525Z,14.41
2019-05-17T04:48:03.647Z,14.38
2019-05-17T04:49:13.793Z,14.42
2019-05-17T04:50:23.051Z,14.39
2019-05-17T04:51:32.414Z,14.31
2019-05-17T04:52:42.955Z,14.37
2019-05-17T04:53:52.996Z,14.37
2019-05-17T04:55:04.193Z,14.45
2019-05-17T04:56:14.129Z,14.49
2019-05-17T04:57:23.121Z,14.51
2019-05-17T04:58:33.568Z,14.54
2019-05-17T04:59:43.407Z,14.56
2019-05-17T05:00:53.761Z,14.58
2019-05-17T05:02:03.138Z,14.61
2019-05-17T05:03:12.907Z,14.61
2019-05-17T05:04:22.616Z,14.60
2019-05-17T05:05:33.009Z,14.61
2019-05-17T05:06:43.547Z,14.59
2019-05-17T05:07:53.570Z,14.62
2019-05-17T05:09:02.635Z,14.62
2019-05-17T05:10:13.495Z,14.70
2019-05-17T05:11:23.375Z,14.71
2019-05-17T05:12:33.547Z,14.73
2019-05-17T05:13:42.570Z,14.80
2019-05-17T05:14:52.300Z,14.86
2019-05-17T05:16:02.973Z,14.88
2019-05-17T05:17:12.787Z,14.92
2019-05-17T05:18:22.193Z,14.96
2019-05-17T05:19:33.082Z,15.00
2019-05-17T05:20:43.548Z,15.04
2019-05-17T05:21:52.172Z,14.99
2019-05-17T05:23:02.641Z,14.98
2019-05-17T05:24:11.593Z,14.92
2019-05-17T05:25:21.637Z,14.88
2019-05-17T05:26:31.789Z,14.88
2019-05-17T05:27:42.643Z,14.78
2019-05-17T05:28:52.848Z,14.74
2019-05-17T05:30:03.042Z,14.80
2019-05-17T05:31:13.290Z,14.70
2019-05-17T05:32:22.047Z,14.63
2019-05-17T05:33:33.238Z,14.69
2019-05-17T05:34:42.962Z,14.66
2019-05-17T05:35:51.883Z,14.65
2019-05-17T05:37:02.163Z,14.62
2019-05-17T05:38:12.919Z,14.59
2019-05-17T05:39:22.706Z,14.58
2019-05-17T05:40:32.077Z,14.62
2019-05-17T05:41:42.710Z,14.60
2019-05-17T05:42:51.619Z,14.53
2019-05-17T05:44:01.902Z,14.45
2019-05-17T05:45:12.103Z,14.42
2019-05-17T05:46:22.410Z,14.41
2019-05-17T05:47:32.331Z,14.45
2019-05-17T05:48:41.607Z,14.50
2019-05-17T05:49:52.043Z,14.42
2019-05-17T05:51:03.012Z,14.44
2019-05-17T05:52:12.542Z,14.42
2019-05-17T05:53:21.806Z,14.47
2019-05-17T05:54:32.011Z,14.48
2019-05-17T05:55:42.737Z,14.48
2019-05-17T05:56:52.485Z,14.45
2019-05-17T05:58:02.833Z,14.46
2019-05-17T05:59:12.366Z,14.50
2019-05-17T06:00:22.956Z,14.45
2019-05-17T06:01:32.603Z,14.47
2019-05-17T06:02:41.957Z,14.53
2019-05-17T06:03:52.035Z,14.50
2019-05-17T06:05:02.015Z,14.49
2019-05-17T06:06:12.371Z,14.51
2019-05-17T06:07:21.663Z,14.55
2019-05-17T06:08:32.243Z,14.55
2019-05-17T06:09:42.347Z,14.62
2019-05-17T06:10:53.177Z,14.66
2019-05-17T06:12:02.440Z,14.70
2019-05-17T06:13:13.026Z,14.80
2019-05-17T06:14:21.753Z,14.84
2019-05-17T06:15:32.071Z,14.83
2019-05-17T06:16:42.471Z,14.79
2019-05-17T06:17:52.025Z,14.82
2019-05-17T06:19:02.415Z,14.84
2019-05-17T06:20:12.703Z,14.84
2019-05-17T06:21:22.646Z,14.86
2019-05-17T06:22:31.903Z,14.87
2019-05-17T06:23:42.479Z,14.87
2019-05-17T06:24:52.050Z,14.95
2019-05-17T06:26:04.198Z,14.86
2019-05-17T06:27:12.340Z,14.84
2019-05-17T06:28:22.312Z,14.80
2019-05-17T06:29:32.743Z,14.86
2019-05-17T06:30:43.019Z,14.88
2019-05-17T06:31:51.926Z,14.90
2019-05-17T06:33:02.270Z,14.97
2019-05-17T06:34:11.673Z,15.08
2019-05-17T06:35:21.754Z,15.18
2019-05-17T06:36:32.835Z,15.32
2019-05-17T06:37:42.235Z,15.38
2019-05-17T06:38:52.758Z,15.47
2019-05-17T06:40:02.368Z,15.52
2019-05-17T06:41:12.681Z,15.46
2019-05-17T06:42:21.664Z,15.51
2019-05-17T06:43:32.283Z,15.50
2019-05-17T06:44:41.759Z,15.53
2019-05-17T06:45:52.272Z,15.59
2019-05-17T06:47:02.667Z,15.62
2019-05-17T06:48:11.986Z,15.58
2019-05-17T06:49:22.274Z,15.67
2019-05-17T06:50:32.727Z,15.76
2019-05-17T06:51:42.594Z,15.82
2019-05-17T06:52:53.245Z,15.80
2019-05-17T06:54:01.908Z,15.68
2019-05-17T06:55:12.870Z,15.68
2019-05-17T06:56:22.805Z,15.63
2019-05-17T06:57:32.593Z,15.72
2019-05-17T06:58:40.846Z,15.64
2019-05-17T06:59:50.025Z,15.75
2019-05-17T07:00:59.869Z,15.87
2019-05-17T07:02:10.447Z,15.96
2019-05-17T07:03:19.861Z,16.04
2019-05-17T07:04:30.015Z,16.14
2019-05-17T07:05:46.042Z,16.21
2019-05-17T07:07:12.355Z,16.35
2019-05-17T07:08:20.430Z,16.43
2019-05-17T07:09:30.244Z,16.43
2019-05-17T07:10:39.799Z,16.49
2019-05-17T07:11:51.271Z,16.54
2019-05-17T07:13:01.807Z,16.49
2019-05-17T07:14:09.598Z,16.51
2019-05-17T07:15:19.809Z,16.46
2019-05-17T07:16:30.085Z,16.55
2019-05-17T07:17:39.998Z,16.63
2019-05-17T07:18:49.457Z,16.72
2019-05-17T07:19:59.751Z,16.79
2019-05-17T07:21:09.949Z,16.79
2019-05-17T07:22:21.003Z,16.81
2019-05-17T07:23:30.249Z,16.89
2019-05-17T07:24:39.726Z,16.91
2019-05-17T07:25:50.397Z,16.97
2019-05-17T07:26:59.217Z,16.95
2019-05-17T07:28:10.003Z,16.98
2019-05-17T07:29:19.407Z,16.98
2019-05-17T07:30:30.545Z,16.89
2019-05-17T07:31:40.509Z,16.85
2019-05-17T07:32:49.834Z,16.86
2019-05-17T07:33:59.904Z,16.87
2019-05-17T07:35:10.746Z,16.91
2019-05-17T07:36:19.721Z,17.07
2019-05-17T07:37:30.376Z,17.17
2019-05-17T07:38:39.651Z,17.17
2019-05-17T07:39:58.588Z,17.19
2019-05-17T07:40:59.509Z,17.24
2019-05-17T07:42:09.661Z,17.32
2019-05-17T07:43:17.825Z,17.39
2019-05-17T07:44:26.658Z,17.45
2019-05-17T07:45:34.728Z,17.48
2019-05-17T07:46:43.441Z,17.51
2019-05-17T07:47:51.405Z,17.47
2019-05-17T07:49:00.548Z,17.46
2019-05-17T07:50:11.301Z,17.60
2019-05-17T07:51:20.591Z,17.63
2019-05-17T07:52:30.005Z,17.70
2019-05-17T07:53:40.096Z,17.64
2019-05-17T07:54:50.706Z,17.64
2019-05-17T07:55:59.632Z,17.75
2019-05-17T07:57:10.256Z,17.81
2019-05-17T07:58:21.132Z,17.85
2019-05-17T07:59:29.449Z,17.80
2019-05-17T08:00:40.069Z,17.81
2019-05-17T08:01:50.207Z,17.79
2019-05-17T08:02:59.941Z,17.80
2019-05-17T08:04:09.999Z,17.76
2019-05-17T08:05:21.364Z,17.73
2019-05-17T08:06:30.588Z,17.77
2019-05-17T08:07:40.750Z,17.81
2019-05-17T08:08:50.196Z,17.84
2019-05-17T08:10:00.155Z,17.90
2019-05-17T08:11:10.557Z,18.00
2019-05-17T08:12:21.212Z,18.02
2019-05-17T08:13:31.379Z,18.06
2019-05-17T08:14:40.150Z,18.05
2019-05-17T08:15:50.178Z,18.13
2019-05-17T08:16:59.855Z,18.21
2019-05-17T08:18:10.856Z,18.27
2019-05-17T08:19:20.463Z,18.37
2019-05-17T08:20:29.939Z,18.42
2019-05-17T08:21:39.822Z,18.52
2019-05-17T08:22:50.064Z,18.60
2019-05-17T08:24:00.119Z,18.66
2019-05-17T08:25:10.232Z,18.61
2019-05-17T08:26:20.040Z,18.63
2019-05-17T08:27:29.708Z,18.69
2019-05-17T08:28:40.428Z,18.79
2019-05-17T08:29:49.896Z,18.90
2019-05-17T08:31:01.124Z,19.04
2019-05-17T08:32:09.638Z,19.16
2019-05-17T08:33:19.479Z,19.29
2019-05-17T08:34:29.310Z,19.42
2019-05-17T08:35:39.872Z,19.52
2019-05-17T08:36:49.749Z,19.58
2019-05-17T08:38:00.362Z,19.67
2019-05-17T08:39:10.255Z,19.73
2019-05-17T08:40:19.982Z,19.71
2019-05-17T08:41:30.819Z,19.70
2019-05-17T08:42:40.643Z,19.64
2019-05-17T08:43:51.125Z,19.60
2019-05-17T08:45:00.242Z,19.60
2019-05-17T08:46:10.550Z,19.67
2019-05-17T08:47:20.922Z,19.75
2019-05-17T08:48:29.437Z,19.83
2019-05-17T08:49:40.299Z,19.86
2019-05-17T08:50:49.488Z,19.89
2019-05-17T08:51:59.432Z,19.91
2019-05-17T08:53:07.573Z,20.00
2019-05-17T08:54:16.520Z,20.04
2019-05-17T08:55:24.687Z,20.08
2019-05-17T08:56:33.462Z,20.14
2019-05-17T08:57:41.791Z,20.19
2019-05-17T08:58:50.598Z,20.18
2019-05-17T09:00:00.864Z,20.21
2019-05-17T09:01:11.127Z,20.25
2019-05-17T09:02:19.884Z,20.35
2019-05-17T09:03:30.313Z,20.41
2019-05-17T09:04:40.511Z,20.47
2019-05-17T09:05:52.577Z,20.56
2019-05-17T09:07:00.072Z,20.52
2019-05-17T09:08:10.478Z,20.53
2019-05-17T09:09:20.410Z,20.58
2019-05-17T09:10:29.963Z,20.62
2019-05-17T09:11:39.574Z,20.65
2019-05-17T09:12:50.293Z,20.61
2019-05-17T09:14:01.961Z,20.56
2019-05-17T09:15:10.009Z,20.65
2019-05-17T09:16:19.598Z,20.73
2019-05-17T09:17:29.969Z,20.83
2019-05-17T09:18:39.422Z,20.90
2019-05-17T09:19:50.967Z,20.93
2019-05-17T09:21:00.261Z,20.99
2019-05-17T09:22:10.436Z,21.06
2019-05-17T09:23:19.762Z,21.03
2019-05-17T09:24:30.051Z,21.06
2019-05-17T09:25:39.763Z,21.15
2019-05-17T09:26:49.240Z,21.29
2019-05-17T09:27:57.407Z,21.35
2019-05-17T09:29:06.746Z,21.43
2019-05-17T09:30:16.710Z,21.44
2019-05-17T09:31:25.707Z,21.48
2019-05-17T09:32:33.777Z,21.48
2019-05-17T09:33:42.888Z,21.53
2019-05-17T09:34:51.092Z,21.59
2019-05-17T09:36:00.731Z,21.57
2019-05-17T09:37:09.940Z,21.65
2019-05-17T09:38:20.365Z,21.69
2019-05-17T09:39:29.457Z,21.66
2019-05-17T09:40:40.321Z,21.69
2019-05-17T09:41:50.176Z,21.68
2019-05-17T09:43:00.505Z,21.69
2019-05-17T09:44:15.688Z,21.79
2019-05-17T09:45:20.151Z,21.81
2019-05-17T09:46:30.237Z,21.99
2019-05-17T09:47:39.711Z,22.13
2019-05-17T09:48:50.258Z,22.16
2019-05-17T09:50:00.551Z,22.35
2019-05-17T09:51:10.483Z,22.36
2019-05-17T09:52:19.997Z,22.51
2019-05-17T09:53:30.489Z,22.50
2019-05-17T09:54:44.920Z,22.54
2019-05-17T09:55:49.824Z,22.65
2019-05-17T09:57:00.441Z,22.69
2019-05-17T09:58:09.966Z,22.63
2019-05-17T09:59:20.390Z,22.48
2019-05-17T10:00:29.735Z,22.64
2019-05-17T10:01:39.576Z,22.80
2019-05-17T10:02:50.543Z,22.99
2019-05-17T10:03:59.870Z,23.16
2019-05-17T10:05:10.623Z,23.35
2019-05-17T10:06:20.258Z,23.50
2019-05-17T10:07:29.810Z,23.62
2019-05-17T10:08:39.395Z,23.75
2019-05-17T10:09:50.054Z,24.01
2019-05-17T10:11:06.031Z,24.32
2019-05-17T10:12:09.578Z,24.58
2019-05-17T10:13:20.236Z,24.92
2019-05-17T10:14:31.163Z,25.10
2019-05-17T10:15:40.849Z,25.33
2019-05-17T10:16:48.441Z,25.55
2019-05-17T10:17:57.346Z,25.62
2019-05-17T10:19:05.713Z,25.88
2019-05-17T10:20:14.561Z,25.98
2019-05-17T10:21:22.511Z,26.21
2019-05-17T10:22:31.365Z,26.17
2019-05-17T10:23:40.677Z,26.37
2019-05-17T10:24:49.653Z,26.82
2019-05-17T10:25:59.597Z,27.04
2019-05-17T10:27:10.848Z,26.49
2019-05-17T10:28:20.350Z,26.37
2019-05-17T10:29:29.988Z,26.66
2019-05-17T10:30:39.779Z,27.28
2019-05-17T10:31:50.458Z,27.99
2019-05-17T10:32:59.982Z,28.47
2019-05-17T10:34:09.809Z,28.94
2019-05-17T10:35:19.827Z,29.20
2019-05-17T10:36:29.367Z,29.46
2019-05-17T10:37:40.839Z,29.94
2019-05-17T10:38:50.192Z,30.40
2019-05-17T10:39:58.470Z,30.84
2019-05-17T10:41:09.955Z,31.15
2019-05-17T10:42:20.742Z,31.47
2019-05-17T10:43:29.918Z,31.89
2019-05-17T10:44:46.174Z,32.18
2019-05-17T10:45:48.240Z,32.30
2019-05-17T10:46:57.138Z,32.64
2019-05-17T10:48:06.356Z,32.13
2019-05-17T10:49:14.794Z,32.02
2019-05-17T10:50:23.788Z,32.04
2019-05-17T10:51:31.885Z,32.24
2019-05-17T10:52:41.339Z,32.62
2019-05-17T10:53:51.361Z,32.66
2019-05-17T10:55:00.323Z,32.84
2019-05-17T10:56:10.028Z,33.07
2019-05-17T10:57:19.470Z,33.57
2019-05-17T10:58:29.676Z,33.50
2019-05-17T10:59:38.097Z,33.76
2019-05-17T11:00:46.326Z,34.03
2019-05-17T11:01:55.200Z,33.87
2019-05-17T11:03:03.232Z,34.16
2019-05-17T11:04:12.328Z,33.96
2019-05-17T11:05:20.624Z,33.57
2019-05-17T11:06:30.221Z,32.98
2019-05-17T11:07:38.388Z,32.44
2019-05-17T11:08:49.950Z,31.88
2019-05-17T11:10:00.445Z,32.04
2019-05-17T11:11:10.200Z,32.66
2019-05-17T11:12:18.076Z,33.02
2019-05-17T11:13:26.884Z,33.04
2019-05-17T11:14:48.936Z,32.59
2019-05-17T11:15:45.620Z,31.83
2019-05-17T11:16:54.121Z,31.02
2019-05-17T11:18:03.098Z,30.40
2019-05-17T11:19:11.424Z,29.89
2019-05-17T11:20:21.091Z,29.37
2019-05-17T11:21:28.963Z,29.03
2019-05-17T11:22:37.747Z,29.44
2019-05-17T11:23:45.962Z,30.51
2019-05-17T11:24:54.739Z,31.37
2019-05-17T11:26:03.166Z,32.06
2019-05-17T11:27:12.380Z,32.72
2019-05-17T11:28:20.487Z,33.27
2019-05-17T11:29:29.391Z,33.62
2019-05-17T11:30:37.604Z,34.11
2019-05-17T11:31:46.440Z,34.68
2019-05-17T11:32:54.688Z,34.80
2019-05-17T11:34:03.435Z,35.09
2019-05-17T11:35:12.246Z,35.51
2019-05-17T11:36:21.579Z,35.55
2019-05-17T11:37:29.630Z,35.85
2019-05-17T11:38:38.587Z,35.90
2019-05-17T11:39:46.655Z,36.23
2019-05-17T11:40:56.051Z,36.41
2019-05-17T11:42:04.416Z,36.65
2019-05-17T11:43:13.120Z,36.61
2019-05-17T11:44:21.791Z,36.75
2019-05-17T11:45:32.822Z,36.77
2019-05-17T11:46:40.473Z,36.99
2019-05-17T11:47:49.327Z,37.24
2019-05-17T11:48:57.495Z,37.46
2019-05-17T11:50:09.589Z,37.42
2019-05-17T11:51:18.318Z,36.66
2019-05-17T11:52:27.061Z,35.86
2019-05-17T11:53:35.484Z,35.05
2019-05-17T11:54:44.331Z,34.56
2019-05-17T11:55:52.523Z,34.10
2019-05-17T11:57:01.548Z,33.39
2019-05-17T11:58:09.771Z,33.59
2019-05-17T11:59:18.872Z,33.42
2019-05-17T12:00:27.421Z,34.06
2019-05-17T12:01:36.177Z,34.62
2019-05-17T12:02:44.395Z,35.12
2019-05-17T12:03:53.211Z,34.35
2019-05-17T12:05:01.297Z,33.30
2019-05-17T12:06:09.987Z,32.67
2019-05-17T12:07:18.271Z,32.20
2019-05-17T12:08:27.306Z,31.95
2019-05-17T12:09:37.684Z,31.54
2019-05-17T12:10:46.158Z,31.26
2019-05-17T12:11:54.379Z,31.02
2019-05-17T12:13:03.498Z,31.24
2019-05-17T12:14:11.820Z,31.57
2019-05-17T12:15:20.818Z,31.22
2019-05-17T12:16:28.911Z,30.72
2019-05-17T12:17:37.542Z,30.58
2019-05-17T12:18:45.784Z,30.49
2019-05-17T12:19:55.268Z,30.61
2019-05-17T12:21:03.947Z,30.58
2019-05-17T12:22:13.032Z,30.87
2019-05-17T12:23:21.287Z,30.62
2019-05-17T12:24:30.093Z,30.39
2019-05-17T12:25:38.139Z,30.19
2019-05-17T12:26:47.598Z,29.90
2019-05-17T12:27:56.056Z,29.59
2019-05-17T12:29:04.946Z,29.17
2019-05-17T12:30:14.434Z,28.94
2019-05-17T12:31:23.499Z,28.85
2019-05-17T12:32:31.692Z,28.84
2019-05-17T12:33:40.368Z,28.67
2019-05-17T12:34:48.542Z,28.63
2019-05-17T12:35:57.821Z,28.37
2019-05-17T12:37:06.142Z,27.76
2019-05-17T12:38:15.230Z,27.60
2019-05-17T12:39:23.285Z,27.41
2019-05-17T12:40:32.368Z,27.46
2019-05-17T12:41:40.538Z,27.25
2019-05-17T12:42:49.480Z,26.99
2019-05-17T12:43:57.557Z,26.84
2019-05-17T12:45:09.459Z,26.77
2019-05-17T12:46:17.602Z,26.65
2019-05-17T12:47:27.405Z,26.46
2019-05-17T12:48:35.591Z,26.41
2019-05-17T12:49:45.319Z,26.34
2019-05-17T12:50:53.635Z,26.23
2019-05-17T12:52:02.644Z,26.16
2019-05-17T12:53:10.850Z,26.23
2019-05-17T12:54:19.988Z,26.10
2019-05-17T12:55:28.165Z,26.02
2019-05-17T12:56:37.189Z,25.96
2019-05-17T12:57:45.265Z,25.73
2019-05-17T12:58:53.998Z,25.73
2019-05-17T13:00:02.089Z,25.83
2019-05-17T13:01:10.966Z,25.68
2019-05-17T13:02:18.974Z,25.66
2019-05-17T13:03:27.752Z,25.62
2019-05-17T13:04:35.690Z,25.56
2019-05-17T13:05:44.540Z,25.46
2019-05-17T13:06:52.796Z,25.44
2019-05-17T13:08:01.714Z,25.49
2019-05-17T13:09:09.957Z,25.45
2019-05-17T13:10:19.189Z,25.49
2019-05-17T13:11:27.520Z,25.44
2019-05-17T13:12:36.057Z,25.37
2019-05-17T13:13:44.198Z,25.29
2019-05-17T13:14:53.136Z,25.30
2019-05-17T13:16:16.881Z,25.18
2019-05-17T13:17:11.725Z,25.09
2019-05-17T13:18:20.027Z,25.12
2019-05-17T13:19:29.158Z,25.12
2019-05-17T13:20:37.164Z,24.99
2019-05-17T13:21:46.147Z,25.07
2019-05-17T13:22:54.105Z,25.05
2019-05-17T13:24:02.509Z,25.11
2019-05-17T13:25:11.184Z,25.05
2019-05-17T13:26:20.262Z,25.08
2019-05-17T13:27:28.394Z,24.77
2019-05-17T13:28:37.642Z,24.63
2019-05-17T13:29:45.635Z,24.69
2019-05-17T13:30:54.902Z,24.71
2019-05-17T13:32:02.795Z,24.64
2019-05-17T13:33:11.923Z,24.67
2019-05-17T13:34:21.045Z,24.67
2019-05-17T13:35:30.809Z,24.64
2019-05-17T13:36:39.243Z,24.69
2019-05-17T13:37:48.111Z,24.69
2019-05-17T13:38:56.258Z,24.81
2019-05-17T13:40:08.646Z,24.81
2019-05-17T13:41:18.719Z,24.74
2019-05-17T13:42:28.444Z,24.81
2019-05-17T13:43:36.883Z,24.91
2019-05-17T13:44:46.703Z,25.03
2019-05-17T13:45:54.994Z,25.02
2019-05-17T13:47:03.889Z,24.94
2019-05-17T13:48:12.081Z,25.00
2019-05-17T13:49:20.705Z,25.13
2019-05-17T13:50:29.029Z,25.18
2019-05-17T13:51:38.225Z,25.17
2019-05-17T13:52:46.454Z,25.10
2019-05-17T13:53:56.251Z,25.11
2019-05-17T13:55:06.400Z,25.09
2019-05-17T13:56:15.832Z,25.06
2019-05-17T13:57:25.700Z,25.05
2019-05-17T13:58:34.612Z,25.07
2019-05-17T13:59:42.733Z,25.25
2019-05-17T14:00:51.082Z,25.40
2019-05-17T14:01:59.080Z,25.46
2019-05-17T14:03:08.092Z,25.56
2019-05-17T14:04:16.728Z,25.48
2019-05-17T14:05:26.234Z,25.55
2019-05-17T14:06:34.462Z,25.55
2019-05-17T14:07:43.327Z,25.76
2019-05-17T14:08:51.774Z,25.79
2019-05-17T14:10:00.623Z,25.83
2019-05-17T14:11:09.576Z,25.71
2019-05-17T14:12:18.613Z,25.65
2019-05-17T14:13:27.867Z,25.73
2019-05-17T14:14:36.738Z,25.62
2019-05-17T14:15:45.347Z,25.60
2019-05-17T14:16:54.377Z,25.48
2019-05-17T14:18:02.608Z,25.37
2019-05-17T14:19:11.685Z,25.12
2019-05-17T14:20:20.391Z,24.99
2019-05-17T14:21:29.713Z,24.91
2019-05-17T14:22:37.822Z,24.77
2019-05-17T14:23:47.182Z,24.66
2019-05-17T14:24:55.353Z,24.51
2019-05-17T14:26:04.459Z,24.43
2019-05-17T14:27:12.667Z,24.40
2019-05-17T14:28:21.498Z,24.47
2019-05-17T14:29:29.842Z,24.50
2019-05-17T14:30:39.377Z,24.67
2019-05-17T14:31:47.919Z,24.69
2019-05-17T14:32:56.723Z,24.72
2019-05-17T14:34:05.042Z,24.72
2019-05-17T14:35:15.783Z,24.65
2019-05-17T14:36:24.360Z,24.62
2019-05-17T14:37:33.546Z,24.58
2019-05-17T14:38:41.727Z,24.54
2019-05-17T14:39:50.875Z,24.56
2019-05-17T14:41:08.244Z,24.64
2019-05-17T14:42:09.479Z,24.69
2019-05-17T14:43:17.922Z,24.80
2019-05-17T14:44:27.212Z,24.92
2019-05-17T14:45:35.403Z,24.88
2019-05-17T14:46:44.041Z,24.85
2019-05-17T14:47:52.239Z,24.77
2019-05-17T14:49:01.363Z,24.80
2019-05-17T14:50:10.200Z,24.74
2019-05-17T14:51:18.845Z,24.69
2019-05-17T14:52:27.100Z,24.73
2019-05-17T14:53:36.178Z,24.73
2019-05-17T14:54:44.193Z,24.65
2019-05-17T14:55:52.751Z,24.55